Latest Weather Observations for Penrith

IDN60801

Issued at 10:02 pm EDT Saturday 25 February 2017 (issued every 30 minutes, with the page automatically refreshed every 10 minutes)

About weather observations | Map of weather stations | Latest weather observations for NSW | Other Formats
Station Details ID: 067113 Name: PENRITH LAKES AWS Lat: -33.72 Lon: 150.68 Height: 24.7 m
Data from the previous 72 hours. | See also: Recent months at Penrith
Date/Time
EDT
Temp
°C
App
Temp
°C
Dew
Point
°C
Rel
Hum
%
Delta-T
°C
Wind Press
QNH
hPa
Press
MSL
hPa
Rain since
9am
mm
Dir  Spd
km/h
Gust
km/h
Spd
kts
Gust
kts
25/10:00pm 18.7 20.9 18.4 98 0.2 NNW 4 6 2 3 - - 0.4
25/09:30pm 18.8 21.1 18.5 98 0.2 NNE 4 6 2 3 - - 0.2
25/09:00pm 18.9 20.7 18.2 96 0.4 NE 6 7 3 4 - - 0.2
25/08:30pm 19.0 20.5 18.0 94 0.6 NNE 7 9 4 5 - - 0.0
25/08:00pm 19.3 21.1 17.4 89 1.2 WNW 4 7 2 4 - - 0.0
25/07:30pm 19.2 20.4 16.8 86 1.4 SSW 6 13 3 7 - - 0.0
25/07:00pm 20.5 21.4 16.5 78 2.4 SW 7 11 4 6 - - 0.0
25/06:30pm 20.3 19.1 16.1 77 2.5 SSE 17 26 9 14 - - 0.0
25/06:00pm 21.2 21.3 16.4 74 2.9 S 11 19 6 10 - - 0.0
25/05:30pm 21.2 21.1 16.0 72 3.1 SSW 11 15 6 8 - - 0.0
25/05:00pm 21.5 21.8 16.0 71 3.3 SSW 9 15 5 8 - - 0.0
25/04:30pm 21.3 21.6 16.0 72 3.2 SSW 9 15 5 8 - - 0.0
25/04:00pm 21.2 20.6 15.7 71 3.3 SSW 13 17 7 9 - - 0.0
25/03:30pm 21.2 20.6 15.7 71 3.3 SSW 13 20 7 11 - - 0.0
25/03:00pm 21.2 20.6 15.7 71 3.3 SSW 13 19 7 10 - - 0.0
25/02:30pm 21.2 20.8 16.2 73 3.0 SSE 13 20 7 11 - - 0.0
25/02:00pm 21.6 21.2 16.1 71 3.3 S 13 20 7 11 - - 0.0
25/01:30pm 21.1 20.2 15.9 72 3.1 SSW 15 22 8 12 - - 0.0
25/01:00pm 20.6 20.6 16.2 76 2.6 SSW 11 17 6 9 - - 0.0
25/12:30pm 20.8 21.2 16.4 76 2.7 S 9 19 5 10 - - 0.0
25/12:00pm 20.5 20.4 16.9 80 2.2 S 13 20 7 11 - - 0.0
25/11:30am 19.8 20.5 17.0 84 1.7 SSW 9 15 5 8 - - 0.0
25/11:00am 19.9 18.9 16.5 81 2.0 S 17 24 9 13 - - 0.0
25/10:30am 20.3 19.6 16.3 78 2.4 S 15 22 8 12 - - 0.0
25/10:00am 20.1 19.4 16.3 79 2.3 SSW 15 20 8 11 - - 0.0
25/09:30am 20.0 20.1 16.6 81 2.1 SSW 11 15 6 8 - - 0.0
25/09:00am 19.9 20.5 16.9 83 1.8 SSW 9 15 5 8 - - 2.6
25/08:30am 19.6 20.4 17.2 86 1.5 SSW 9 13 5 7 - - 2.6
25/08:00am 19.4 19.8 17.2 87 1.3 SSW 11 19 6 10 - - 2.6
25/07:30am 19.1 19.8 17.9 93 0.7 SSW 11 17 6 9 - - 2.6
25/07:00am 19.0 19.9 18.3 96 0.4 SSW 11 15 6 8 - - 2.6
25/06:30am 19.1 20.6 18.8 98 0.2 SSW 9 13 5 7 - - 2.6
25/06:00am 19.4 21.4 18.7 96 0.4 SW 6 9 3 5 - - 2.6
25/05:30am 19.4 21.2 18.7 96 0.4 SSW 7 13 4 7 - - 2.4
25/05:00am 19.6 21.0 18.6 94 0.6 SSW 9 15 5 8 - - 2.4
25/04:30am 20.1 21.1 18.6 91 0.9 SSW 11 17 6 9 - - 2.2
25/04:00am 20.8 21.3 18.4 86 1.5 SSW 13 20 7 11 - - 2.2
25/03:30am 20.9 21.8 18.3 85 1.6 SSW 11 17 6 9 - - 2.2
25/03:00am 21.0 22.4 18.6 86 1.5 SSW 9 15 5 8 - - 2.2
25/02:30am 21.2 22.8 19.1 88 1.3 SSW 9 17 5 9 - - 2.2
25/02:00am 21.3 22.4 19.6 90 1.1 S 13 20 7 11 - - 2.2
25/01:30am 21.7 24.7 21.2 97 0.3 SSW 7 15 4 8 - - 2.2
25/01:00am 21.6 24.8 21.3 98 0.2 S 6 9 3 5 - - 2.2
25/12:30am 21.9 24.9 21.2 96 0.5 SSW 7 11 4 6 - - 2.0
25/12:00am 21.8 24.7 21.1 96 0.5 SSW 7 9 4 5 - - 2.0
 
Date/Time
EDT
Temp
°C
App
Temp
°C
Dew
Point
°C
Rel
Hum
%
Delta-T
°C
Wind Press
QNH
hPa
Press
MSL
hPa
Rain since
9am
mm
Dir  Spd
km/h
Gust
km/h
Spd
kts
Gust
kts
24/11:30pm 21.7 25.0 21.4 98 0.2 WSW 6 7 3 4 - - 2.0
24/11:00pm 21.5 23.3 21.2 98 0.2 W 13 20 7 11 - - 1.6
24/10:30pm 22.1 25.3 20.4 90 1.1 W 4 6 2 3 - - 0.2
24/10:00pm 22.2 23.8 19.9 87 1.5 SW 11 15 6 8 - - 0.0
24/09:30pm 23.4 24.6 19.1 77 2.7 S 11 17 6 9 - - 0.0
24/09:00pm 23.6 24.5 19.3 77 2.7 SSE 13 17 7 9 - - 0.0
24/08:30pm 23.9 24.1 19.4 76 2.9 SSE 17 24 9 13 - - 0.0
24/08:00pm 24.5 24.8 19.6 74 3.2 SE 17 24 9 13 - - 0.0
24/07:30pm 25.8 26.6 19.0 66 4.4 SE 13 20 7 11 - - 0.0
24/07:00pm 26.8 27.4 17.8 57 5.7 E 11 19 6 10 - - 0.0
24/06:30pm 27.6 27.4 17.7 54 6.3 E 15 20 8 11 - - 0.0
24/06:00pm 27.6 28.6 17.7 54 6.3 E 9 15 5 8 - - 0.0
24/05:30pm 28.0 28.6 17.8 54 6.5 ENE 11 17 6 9 - - 0.0
24/05:00pm 28.3 28.7 18.1 54 6.5 E 13 19 7 10 - - 0.0
24/04:30pm 29.5 29.9 18.9 53 6.9 E 15 24 8 13 - - 0.0
24/04:00pm 29.0 28.9 17.8 50 7.1 E 15 20 8 11 - - 0.0
24/03:30pm 28.3 29.2 18.4 55 6.3 E 11 19 6 10 - - 0.0
24/03:00pm 28.1 28.4 17.9 54 6.5 E 13 19 7 10 - - 0.0
24/02:30pm 28.8 29.1 18.0 52 6.9 SE 13 20 7 11 - - 0.0
24/02:00pm 29.6 30.2 17.8 49 7.5 ESE 11 22 6 12 - - 0.0
24/01:30pm 29.8 29.5 17.3 47 7.9 SE 15 22 8 12 - - 0.0
24/01:00pm 30.2 30.6 17.3 46 8.2 SE 11 17 6 9 - - 0.0
24/12:30pm 29.5 30.2 17.0 47 7.9 ENE 9 15 5 8 - - 0.0
24/12:00pm 29.1 30.2 17.0 48 7.6 E 7 13 4 7 - - 0.0
24/11:30am 27.2 28.4 17.4 55 6.2 SSE 7 13 4 7 - - 0.0
24/11:00am 27.0 28.4 17.8 57 5.8 SE 7 15 4 8 - - 0.0
24/10:30am 25.7 27.0 17.6 61 5.1 SSE 7 9 4 5 - - 0.0
24/10:00am 25.6 27.2 17.8 62 4.9 ESE 6 11 3 6 - - 0.0
24/09:30am 24.1 25.8 18.5 71 3.5 S 7 11 4 6 - - 0.0
24/09:00am 23.2 23.8 18.5 75 3.0 S 13 19 7 10 - - 0.0
24/08:30am 23.0 23.5 18.3 75 3.0 SSW 13 19 7 10 - - 0.0
24/08:00am 22.1 23.2 17.9 77 2.6 SSW 9 13 5 7 - - 0.0
24/07:30am 21.0 22.2 17.4 80 2.2 S 7 9 4 5 - - 0.0
24/07:00am 20.4 21.2 17.2 82 2.0 SSW 9 11 5 6 - - 0.0
24/06:30am 19.8 20.6 17.2 85 1.6 SSW 9 11 5 6 - - 0.0
24/06:00am 19.6 20.3 17.0 85 1.6 SSW 9 11 5 6 - - 0.0
24/05:30am 19.8 21.0 16.8 83 1.8 S 6 7 3 4 - - 0.0
24/05:00am 20.0 21.1 16.6 81 2.1 SSW 6 7 3 4 - - 0.0
24/04:30am 20.3 21.2 16.5 79 2.3 S 7 13 4 7 - - 0.0
24/04:00am 20.5 20.7 16.7 79 2.3 SSW 11 17 6 9 - - 0.0
24/03:30am 20.7 21.6 17.5 82 2.0 S 9 11 5 6 - - 0.0
24/03:00am 20.9 22.4 17.5 81 2.1 S 6 7 3 4 - - 0.0
24/02:30am 21.4 23.2 17.4 78 2.5 SSW 4 6 2 3 - - 0.0
24/02:00am 21.8 23.5 17.2 75 2.8 S 4 6 2 3 - - 0.0
24/01:30am 22.1 23.4 17.0 73 3.1 S 6 7 3 4 - - 0.0
24/01:00am 22.7 23.6 16.7 69 3.7 SSW 7 9 4 5 - - 0.0
24/12:30am 23.2 24.7 16.7 67 4.0 SSE 4 7 2 4 - - 0.0
24/12:00am 24.2 25.8 15.9 59 5.0 E 2 4 1 2 - - 0.0
 
Date/Time
EDT
Temp
°C
App
Temp
°C
Dew
Point
°C
Rel
Hum
%
Delta-T
°C
Wind Press
QNH
hPa
Press
MSL
hPa
Rain since
9am
mm
Dir  Spd
km/h
Gust
km/h
Spd
kts
Gust
kts
23/11:30pm 24.8 26.6 16.5 60 5.1 E 2 4 1 2 - - 0.0
23/11:00pm 25.3 27.0 16.2 57 5.6 E 2 4 1 2 - - 0.0
23/10:30pm 25.6 26.7 16.5 57 5.6 E 6 6 3 3 - - 0.0
23/10:00pm 25.8 26.9 16.6 56 5.7 ESE 6 7 3 4 - - 0.0
23/09:30pm 26.4 27.9 16.6 55 6.1 ENE 4 4 2 2 - - 0.0
23/09:00pm 26.9 28.5 16.8 54 6.3 ENE 4 7 2 4 - - 0.0
23/08:30pm 27.3 27.6 16.9 53 6.5 E 11 17 6 9 - - 0.0
23/08:00pm 28.3 28.3 17.2 51 7.0 E 13 20 7 11 - - 0.0
23/07:30pm 29.9 30.6 17.0 45 8.1 ENE 9 13 5 7 - - 0.0
23/07:00pm 31.1 31.1 16.3 41 9.3 E 11 15 6 8 - - 0.0
23/06:30pm 32.5 30.9 15.1 35 10.8 ENE 17 22 9 12 - - 0.0
23/06:00pm 34.1 32.3 15.5 32 11.6 ENE 19 24 10 13 - - 0.0
23/05:30pm 35.8 34.8 16.5 31 12.3 ENE 17 24 9 13 - - 0.0
23/05:00pm 36.3 36.2 15.9 29 12.9 NE 11 22 6 12 - - 0.0
23/04:30pm 36.8 36.8 14.1 25 14.1 E 7 19 4 10 - - 0.0
23/04:00pm 36.3 35.6 14.3 27 13.6 NE 11 15 6 8 - - 0.0
23/03:30pm 35.7 36.2 14.9 29 13.0 NE 6 11 3 6 - - 0.0
23/03:00pm 35.6 36.6 15.3 29 12.7 ENE 4 9 2 5 - - 0.0
23/02:30pm 34.1 34.6 15.1 32 11.8 NE 6 13 3 7 - - 0.0
23/02:00pm 33.4 34.8 16.3 36 10.8 NNW 4 9 2 5 - - 0.0
23/01:30pm 32.2 33.4 16.9 40 9.7 N 6 9 3 5 - - 0.0
23/01:00pm 31.5 32.7 17.4 43 9.0 NW 7 11 4 6 - - 0.0
23/12:30pm 30.4 32.2 17.5 46 8.2 WNW 4 7 2 4 - - 0.0
23/12:00pm 29.4 31.0 17.9 50 7.3 SW 6 7 3 4 - - 0.0
23/11:30am 27.2 28.5 17.1 54 6.3 WSW 6 11 3 6 - - 0.0
23/11:00am 26.4 28.1 17.2 57 5.7 WNW 4 7 2 4 - - 0.0
23/10:30am 25.4 27.0 16.8 59 5.3 SW 4 6 2 3 - - 0.0
23/10:00am 24.3 25.9 16.8 63 4.6 W 4 9 2 5 - - 0.0
23/09:30am 23.8 25.3 16.6 64 4.4 ESE 4 7 2 4 - - 0.0
23/09:00am 22.5 24.1 16.8 70 3.5 SSE 4 6 2 3 - - 0.0
23/08:30am 21.4 23.7 16.8 75 2.8 CALM 0 4 0 2 - - 0.0
23/08:00am 19.6 21.4 16.4 82 1.9 S 2 4 1 2 - - 0.0
23/07:30am 18.9 21.2 16.7 87 1.3 CALM 0 0 0 0 - - 0.0
23/07:00am 17.8 19.8 17.0 95 0.5 SSW 2 2 1 1 - - 0.0
23/06:30am 17.8 20.1 16.8 94 0.6 CALM 0 0 0 0 - - 0.0
23/06:00am 17.8 19.7 16.7 93 0.7 SSW 2 4 1 2 - - 0.0
23/05:30am 17.9 19.5 16.8 93 0.7 SSW 4 6 2 3 - - 0.0
23/05:00am 18.5 20.8 16.7 89 1.1 CALM 0 0 0 0 - - 0.0
23/04:30am 18.4 20.6 16.4 88 1.2 CALM 0 0 0 0 - - 0.0
23/04:00am 18.8 21.0 16.6 87 1.3 CALM 0 0 0 0 - - 0.0
23/03:30am 18.9 20.3 16.5 86 1.4 SW 4 6 2 3 - - 0.0
23/03:00am 19.4 21.6 16.4 83 1.8 CALM 0 0 0 0 - - 0.0
23/02:30am 19.7 21.9 16.5 82 1.9 CALM 0 0 0 0 - - 0.0
23/02:00am 19.6 21.0 16.3 81 2.0 SW 4 6 2 3 - - 0.0
23/01:30am 20.1 21.5 16.5 80 2.2 SSW 4 6 2 3 - - 0.0
23/01:00am 20.4 21.5 16.6 79 2.3 SSW 6 7 3 4 - - 0.0
23/12:30am 20.6 21.8 16.8 79 2.3 SW 6 7 3 4 - - 0.0
23/12:00am 21.6 23.6 16.1 71 3.3 CALM 0 0 0 0 - - 0.0
 
Date/Time
EDT
Temp
°C
App
Temp
°C
Dew
Point
°C
Rel
Hum
%
Delta-T
°C
Wind Press
QNH
hPa
Press
MSL
hPa
Rain since
9am
mm
Dir  Spd
km/h
Gust
km/h
Spd
kts
Gust
kts
22/11:30pm 22.2 23.1 16.0 68 3.7 ENE 6 6 3 3 - - 0.0
22/11:00pm 22.6 24.6 15.9 66 4.0 CALM 0 0 0 0 - - 0.0
22/10:30pm 22.7 23.9 16.0 66 4.0 E 4 6 2 3 - - 0.0

Other Formats:

Comma delimited format used in spreadsheet applications
http://www.bom.gov.au/fwo/IDN60801/IDN60801.94763.axf

JavaScript Object Notation format (JSON) in row-major order
http://www.bom.gov.au/fwo/IDN60801/IDN60801.94763.json